Time;durP1;ratioP1;P1;durP2;ratioP2;P2;SDS_P1;SDS_P2;PMS_P1;PMS_P2;Temp;Humidity;BMP_temperature;BMP_pressure;BME280_temperature;BME280_humidity;BME280_pressure;Samples;Min_cycle;Max_cycle;Signal;HPM_P1;HPM_P2
2021/04/12 00:00:30;;;;;;;7.50;3.60;;;;;;;5.22;90.36;96172.88;5079007;28;20465;-75
2021/04/12 00:03:05;;;;;;;5.30;3.30;;;;;;;5.12;90.04;96172.81;5073498;28;20457;-75
2021/04/12 00:06:06;;;;;;;5.67;3.40;;;;;;;4.99;90.29;96177.38;5072412;28;20990;-75
2021/04/12 00:08:58;;;;;;;5.60;3.33;;;;;;;4.88;90.86;96165.25;5077592;28;21260;-75
2021/04/12 00:11:39;;;;;;;6.37;3.90;;;;;;;4.69;91.30;96168.50;5081778;28;20461;-75
2021/04/12 00:14:14;;;;;;;5.33;3.20;;;;;;;4.57;90.61;96161.72;5071015;28;20472;-75
2021/04/12 00:16:48;;;;;;;6.20;3.63;;;;;;;4.57;90.83;96146.91;5090254;28;20445;-75
2021/04/12 00:19:31;;;;;;;5.70;3.53;;;;;;;4.57;91.51;96156.50;5088872;28;20418;-76
2021/04/12 00:22:17;;;;;;;6.45;4.28;;;;;;;4.57;91.11;96172.13;5074145;28;20484;-75
2021/04/12 00:25:04;;;;;;;6.07;3.63;;;;;;;4.69;91.08;96171.09;5065061;28;20128;-75
2021/04/12 00:27:39;;;;;;;6.57;4.10;;;;;;;4.55;91.25;96163.59;5049620;28;20488;-75
2021/04/12 00:30:07;;;;;;;6.60;4.07;;;;;;;4.46;90.80;96168.59;5078323;28;20447;-75
2021/04/12 00:32:44;;;;;;;6.60;4.17;;;;;;;4.58;91.58;96176.38;5057350;28;20481;-75
2021/04/12 00:35:22;;;;;;;6.40;4.00;;;;;;;4.34;90.97;96181.78;5051529;28;20473;-75
2021/04/12 00:37:58;;;;;;;6.43;4.00;;;;;;;4.41;91.57;96188.97;5079513;28;20490;-75
2021/04/12 00:40:55;;;;;;;6.23;4.27;;;;;;;4.35;91.46;96186.84;5071609;28;20442;-74
2021/04/12 00:43:42;;;;;;;6.50;4.40;;;;;;;4.40;90.70;96189.09;5060480;28;20566;-75
2021/04/12 00:46:45;;;;;;;7.53;4.10;;;;;;;4.28;91.12;96192.66;5049395;28;20527;-75
2021/04/12 00:49:14;;;;;;;5.57;3.70;;;;;;;4.19;91.55;96197.66;5045375;28;20789;-74
2021/04/12 00:52:24;;;;;;;5.73;4.00;;;;;;;4.17;91.45;96211.75;5070090;28;20442;-75
2021/04/12 00:55:16;;;;;;;5.63;3.83;;;;;;;3.94;91.66;96216.94;5054765;28;20476;-74
2021/04/12 00:58:19;;;;;;;4.37;2.67;;;;;;;3.91;92.23;96219.78;5059825;28;20528;-75
2021/04/12 01:01:12;;;;;;;5.13;3.37;;;;;;;3.89;91.37;96223.44;5057229;28;21076;-75
2021/04/12 01:04:11;;;;;;;4.33;2.70;;;;;;;3.78;91.04;96221.69;5069352;28;20470;-75
2021/04/12 01:07:04;;;;;;;3.90;2.50;;;;;;;3.59;91.54;96235.28;5049353;28;20463;-74
2021/04/12 01:09:48;;;;;;;2.83;2.00;;;;;;;3.50;89.89;96238.56;5068368;28;20450;-75
2021/04/12 01:12:32;;;;;;;2.50;1.75;;;;;;;3.28;89.71;96245.34;5067377;28;21026;-75
2021/04/12 01:15:13;;;;;;;1.93;1.40;;;;;;;3.10;89.38;96256.28;5051793;28;20078;-76
2021/04/12 01:18:13;;;;;;;1.70;1.23;;;;;;;3.14;89.34;96270.72;5047530;28;20463;-75
2021/04/12 01:21:01;;;;;;;1.60;1.10;;;;;;;3.15;88.98;96273.19;5052631;28;20478;-76
2021/04/12 01:24:05;;;;;;;1.50;1.30;;;;;;;2.93;89.04;96275.72;5064971;28;21010;-75
2021/04/12 01:26:58;;;;;;;1.83;1.17;;;;;;;2.69;89.41;96275.72;4993493;28;20472;-75
2021/04/12 01:29:55;;;;;;;2.45;1.20;;;;;;;2.38;89.43;96284.81;5064062;28;20168;-74
2021/04/12 01:33:03;;;;;;;2.00;1.23;;;;;;;2.52;88.94;96290.72;5071592;28;20040;-75
2021/04/12 01:35:54;;;;;;;1.80;1.27;;;;;;;2.33;89.52;96298.13;5065177;28;20546;-75
2021/04/12 01:38:42;;;;;;;2.50;1.43;;;;;;;2.02;89.34;96300.25;5067283;28;20462;-76
2021/04/12 01:41:07;;;;;;;2.60;1.43;;;;;;;2.09;89.98;96308.44;5033525;28;20478;-75
2021/04/12 01:44:11;;;;;;;2.47;1.70;;;;;;;1.90;89.84;96311.44;5062383;28;20463;-76
2021/04/12 01:47:10;;;;;;;2.92;1.60;;;;;;;1.96;90.96;96318.81;5062812;28;20033;-75
2021/04/12 01:49:38;;;;;;;2.20;1.40;;;;;;;1.81;90.35;96332.81;5047535;28;20048;-75
2021/04/12 01:52:38;;;;;;;2.47;1.60;;;;;;;1.81;90.27;96338.84;5069960;28;20460;-75
2021/04/12 01:55:26;;;;;;;3.10;1.70;;;;;;;1.83;90.12;96338.72;5048400;28;20459;-75
2021/04/12 01:58:20;;;;;;;2.53;1.77;;;;;;;1.70;90.75;96332.72;5003627;28;20468;-76
2021/04/12 02:00:49;;;;;;;2.92;1.90;;;;;;;1.71;91.55;96352.50;5076177;28;20462;-74
2021/04/12 02:03:52;;;;;;;3.07;1.87;;;;;;;1.72;91.15;96352.41;5085209;28;20024;-75
2021/04/12 02:06:40;;;;;;;3.37;2.10;;;;;;;1.77;91.54;96354.69;5070884;28;20466;-75
2021/04/12 02:09:11;;;;;;;2.87;1.83;;;;;;;1.63;91.35;96353.03;5049023;28;20484;-75
2021/04/12 02:11:50;;;;;;;3.23;2.30;;;;;;;1.63;91.06;96359.03;5059928;28;20455;-75
2021/04/12 02:14:40;;;;;;;4.47;2.70;;;;;;;1.61;91.39;96360.91;5058426;28;20492;-75
2021/04/12 02:17:21;;;;;;;3.87;2.50;;;;;;;1.73;91.38;96361.03;5053383;28;20466;-76
2021/04/12 02:20:06;;;;;;;4.50;3.03;;;;;;;1.80;90.90;96364.88;5060031;28;20537;-75
2021/04/12 02:23:06;;;;;;;4.37;2.77;;;;;;;1.53;90.07;96368.34;5078414;28;20430;-75
2021/04/12 02:26:11;;;;;;;3.90;2.60;;;;;;;1.44;91.17;96363.75;5073276;28;20458;-75
2021/04/12 02:29:07;;;;;;;4.28;2.80;;;;;;;1.30;92.13;96353.47;5074647;28;20527;-75
2021/04/12 02:31:48;;;;;;;4.87;3.10;;;;;;;1.32;91.62;96378.34;5073174;28;20534;-75
2021/04/12 02:34:32;;;;;;;5.27;3.03;;;;;;;1.21;91.31;96373.03;5070767;28;20456;-75
2021/04/12 02:37:28;;;;;;;4.87;3.10;;;;;;;1.16;91.54;96381.09;5071718;28;20429;-74
2021/04/12 02:40:09;;;;;;;9.40;3.60;;;;;;;1.27;91.73;96400.28;5076213;28;20437;-76
2021/04/12 02:42:56;;;;;;;4.13;2.80;;;;;;;1.12;91.15;96417.66;5082216;28;20439;-76
2021/04/12 02:45:34;;;;;;;5.43;3.50;;;;;;;1.17;92.32;96413.00;5078388;28;20864;-75
2021/04/12 02:48:29;;;;;;;5.03;3.10;;;;;;;1.08;92.01;96422.19;5050600;28;20534;-75
2021/04/12 02:51:10;;;;;;;5.40;3.30;;;;;;;1.15;92.77;96417.47;5034779;28;20525;-74
2021/04/12 02:54:10;;;;;;;5.13;3.40;;;;;;;1.04;91.73;96425.91;5088387;28;20484;-75
2021/04/12 02:56:54;;;;;;;4.80;2.90;;;;;;;1.07;91.99;96415.34;5071191;28;20457;-75
2021/04/12 02:59:51;;;;;;;5.47;3.30;;;;;;;1.01;92.48;96415.75;5058776;28;20589;-75
2021/04/12 03:02:32;;;;;;;5.50;3.40;;;;;;;0.97;92.12;96418.59;5033731;28;20445;-75
2021/04/12 03:05:09;;;;;;;5.73;3.50;;;;;;;0.89;92.21;96424.28;5064183;28;20466;-76
2021/04/12 03:08:11;;;;;;;6.30;3.87;;;;;;;0.86;92.10;96421.88;5069909;28;20991;-75
2021/04/12 03:10:57;;;;;;;5.70;3.30;;;;;;;0.85;92.98;96426.22;5053569;28;20451;-76
2021/04/12 03:13:54;;;;;;;6.10;3.63;;;;;;;0.93;92.57;96420.56;5070023;28;20466;-75
2021/04/12 03:16:44;;;;;;;5.37;3.40;;;;;;;0.86;92.68;96421.88;5050426;28;20480;-74
2021/04/12 03:19:53;;;;;;;5.60;3.20;;;;;;;0.87;93.14;96431.28;5033896;28;20446;-75
2021/04/12 03:22:34;;;;;;;5.13;3.20;;;;;;;0.81;91.97;96435.09;5064967;28;20449;-75
2021/04/12 03:25:20;;;;;;;5.67;3.57;;;;;;;0.93;92.59;96434.31;5048390;28;20482;-75
2021/04/12 03:28:24;;;;;;;4.40;3.03;;;;;;;0.82;92.46;96447.13;5052808;28;20466;-75
2021/04/12 03:30:56;;;;;;;5.57;3.47;;;;;;;0.69;92.07;96451.38;5081350;28;20531;-76
2021/04/12 03:33:38;;;;;;;4.83;2.97;;;;;;;0.78;93.06;96455.19;5059662;28;20470;-75
2021/04/12 03:36:18;;;;;;;6.43;3.97;;;;;;;0.77;92.44;96444.00;5076302;28;20450;-75
2021/04/12 03:39:24;;;;;;;5.50;3.27;;;;;;;0.71;92.85;96452.13;5080620;28;20461;-76
2021/04/12 03:42:23;;;;;;;6.10;3.70;;;;;;;0.78;92.60;96460.34;5082325;28;20698;-75
2021/04/12 03:44:58;;;;;;;6.87;3.90;;;;;;;0.81;92.54;96478.28;5050819;28;20689;-75
2021/04/12 03:48:11;;;;;;;6.57;3.97;;;;;;;0.81;93.30;96478.28;5062261;28;21072;-75
2021/04/12 03:51:04;;;;;;;6.40;3.43;;;;;;;0.70;92.62;96490.13;5040153;28;21055;-75
2021/04/12 03:53:42;;;;;;;5.87;3.47;;;;;;;0.67;92.33;96492.91;5032881;28;20502;-74
2021/04/12 03:56:35;;;;;;;4.97;3.10;;;;;;;0.70;92.82;96494.44;5060703;28;20450;-75
2021/04/12 03:59:28;;;;;;;6.57;3.78;;;;;;;0.82;93.20;96498.88;5072240;28;20472;-75
2021/04/12 04:02:11;;;;;;;6.13;4.00;;;;;;;0.77;92.93;96507.84;5075199;28;20040;-74
2021/04/12 04:04:54;;;;;;;7.63;4.22;;;;;;;0.78;92.68;96504.34;5089096;28;20454;-75
2021/04/12 04:07:36;;;;;;;7.27;3.93;;;;;;;0.53;92.70;96507.56;5067825;28;20060;-75
2021/04/12 04:10:18;;;;;;;6.63;4.23;;;;;;;0.52;92.90;96511.09;5049520;28;20412;-75
2021/04/12 04:12:48;;;;;;;7.70;4.97;;;;;;;0.52;92.79;96517.09;5051551;28;20463;-76
2021/04/12 04:15:18;;;;;;;6.83;4.30;;;;;;;0.64;93.00;96526.72;5058593;28;20975;-75
2021/04/12 04:18:31;;;;;;;6.90;4.57;;;;;;;0.68;92.81;96522.19;5050281;28;20424;-75
2021/04/12 04:20:59;;;;;;;7.67;5.03;;;;;;;0.73;92.90;96529.66;4976548;28;20526;-74
2021/04/12 04:23:47;;;;;;;7.57;5.27;;;;;;;0.53;93.02;96531.69;5023784;28;20483;-75
2021/04/12 04:26:34;;;;;;;8.80;6.30;;;;;;;0.63;93.61;96537.16;5057154;28;20554;-74
2021/04/12 04:29:38;;;;;;;8.93;5.80;;;;;;;0.63;92.78;96543.16;5063869;28;20504;-74
2021/04/12 04:32:22;;;;;;;9.27;5.63;;;;;;;0.59;92.54;96549.44;5071631;28;20455;-75
2021/04/12 04:35:06;;;;;;;8.87;6.10;;;;;;;0.66;93.47;96560.25;5065511;28;20463;-76
2021/04/12 04:37:45;;;;;;;9.63;5.63;;;;;;;0.63;92.96;96568.22;5048267;28;20444;-75
2021/04/12 04:40:34;;;;;;;8.90;5.80;;;;;;;0.63;92.71;96566.44;5070300;28;21257;-75
2021/04/12 04:43:16;;;;;;;9.27;6.30;;;;;;;0.79;92.89;96570.72;5058383;28;20562;-75
2021/04/12 04:46:10;;;;;;;17.23;9.97;;;;;;;0.59;92.72;96580.50;5083891;28;20526;-74
2021/04/12 04:48:53;;;;;;;12.13;7.53;;;;;;;0.68;93.00;96584.31;5073109;28;20846;-75
2021/04/12 04:51:24;;;;;;;9.50;6.80;;;;;;;0.68;92.60;96584.31;5079925;28;20036;-75
2021/04/12 04:54:41;;;;;;;10.27;7.10;;;;;;;0.68;93.69;96582.56;5071622;28;20040;-75
2021/04/12 04:57:32;;;;;;;10.07;7.30;;;;;;;0.59;92.93;96602.97;5018044;28;21428;-74
2021/04/12 05:00:37;;;;;;;11.67;7.13;;;;;;;0.54;93.55;96603.25;5065702;28;20470;-75
2021/04/12 05:03:27;;;;;;;12.60;7.57;;;;;;;0.64;93.21;96609.53;5007755;28;20817;-75
2021/04/12 05:06:23;;;;;;;10.77;7.50;;;;;;;0.59;93.00;96614.13;5063079;28;20566;-75
2021/04/12 05:08:59;;;;;;;11.57;8.03;;;;;;;0.52;93.07;96615.41;5060135;28;20469;-75
2021/04/12 05:11:31;;;;;;;9.43;7.10;;;;;;;0.51;93.66;96616.34;5059719;28;20553;-75
2021/04/12 05:14:24;;;;;;;15.13;10.00;;;;;;;0.56;94.26;96635.03;5068655;28;20489;-74
2021/04/12 05:17:16;;;;;;;10.50;7.13;;;;;;;0.55;93.44;96640.28;5082510;28;20451;-75
2021/04/12 05:19:50;;;;;;;11.00;6.33;;;;;;;0.61;93.60;96645.94;5068796;28;20449;-74
2021/04/12 05:22:42;;;;;;;9.87;6.67;;;;;;;0.56;93.65;96658.31;5068431;28;20458;-74
2021/04/12 05:25:14;;;;;;;9.60;6.23;;;;;;;0.52;93.52;96662.00;5076894;28;20497;-75
2021/04/12 05:27:45;;;;;;;9.67;6.30;;;;;;;0.64;94.08;96661.31;5085249;28;20492;-75
2021/04/12 05:30:17;;;;;;;9.33;6.73;;;;;;;0.66;93.82;96654.28;5074551;28;20469;-74
2021/04/12 05:32:51;;;;;;;8.93;6.33;;;;;;;0.59;93.91;96657.31;5084823;28;20458;-74
2021/04/12 05:35:35;;;;;;;9.03;6.50;;;;;;;0.62;93.33;96664.91;5067178;28;20471;-74
2021/04/12 05:38:13;;;;;;;;;;;;;;;0.66;93.95;96676.75;5061800;28;20560;-74
2021/04/12 05:41:28;;;;;;;9.83;7.00;;;;;;;0.68;93.55;96677.50;5033235;28;19920;-75
2021/04/12 05:44:02;;;;;;;11.35;6.93;;;;;;;0.77;92.75;96678.72;5033780;28;20467;-74
2021/04/12 05:46:28;;;;;;;11.50;7.43;;;;;;;0.70;93.27;96680.81;5060600;28;20025;-73
2021/04/12 05:49:27;;;;;;;10.10;7.10;;;;;;;0.68;93.24;96695.63;5056008;28;20462;-74
2021/04/12 05:52:12;;;;;;;13.97;7.60;;;;;;;0.73;92.79;96698.75;5068822;28;20039;-73
2021/04/12 05:55:14;;;;;;;11.03;7.80;;;;;;;0.69;92.76;96698.09;5073636;28;20475;-74
2021/04/12 05:58:18;;;;;;;12.57;8.30;;;;;;;0.65;93.32;96709.56;5083978;28;21091;-74
2021/04/12 06:01:19;;;;;;;12.05;8.27;;;;;;;0.87;93.35;96709.19;5072311;28;20456;-75
2021/04/12 06:04:03;;;;;;;12.40;8.30;;;;;;;0.73;92.73;96709.13;5047066;28;20035;-74
2021/04/12 06:06:55;;;;;;;11.30;7.83;;;;;;;0.89;93.42;96720.25;5078752;28;20553;-74
2021/04/12 06:09:35;;;;;;;11.67;7.87;;;;;;;0.82;92.54;96721.53;5061189;28;20450;-74
2021/04/12 06:12:24;;;;;;;11.73;7.90;;;;;;;0.93;92.67;96729.53;5076064;28;20463;-74
2021/04/12 06:14:53;;;;;;;19.13;11.60;;;;;;;0.93;92.87;96726.94;5079283;28;21054;-75
2021/04/12 06:17:37;;;;;;;13.47;8.83;;;;;;;1.01;92.02;96731.69;5070543;28;20445;-73
2021/04/12 06:20:13;;;;;;;12.67;8.10;;;;;;;1.02;93.23;96735.09;5078023;28;21038;-74
2021/04/12 06:23:09;;;;;;;11.87;7.57;;;;;;;0.95;92.65;96742.41;5073572;28;20466;-74
2021/04/12 06:25:42;;;;;;;15.57;8.07;;;;;;;0.91;92.54;96740.91;5071789;28;20451;-74
2021/04/12 06:28:28;;;;;;;11.87;7.83;;;;;;;1.04;92.86;96741.88;5081318;28;20478;-74
2021/04/12 06:30:59;;;;;;;11.93;7.77;;;;;;;1.03;92.36;96752.31;5058334;28;21029;-73
2021/04/12 06:33:59;;;;;;;11.83;7.80;;;;;;;1.03;91.95;96754.91;5054806;28;20839;-74
2021/04/12 06:36:34;;;;;;;10.70;7.37;;;;;;;1.00;92.06;96766.25;5052477;28;20495;-73
2021/04/12 06:39:35;;;;;;;12.57;8.13;;;;;;;1.14;92.25;96763.75;5080751;28;20458;-74
2021/04/12 06:42:07;;;;;;;12.87;7.30;;;;;;;1.11;91.75;96774.28;5078153;28;20552;-76
2021/04/12 06:44:54;;;;;;;11.57;7.33;;;;;;;1.14;91.37;96779.28;5068933;28;20478;-76
2021/04/12 06:47:52;;;;;;;11.53;7.33;;;;;;;1.01;91.82;96793.03;5073451;28;20478;-77
2021/04/12 06:50:58;;;;;;;10.27;7.20;;;;;;;0.99;91.94;96798.28;5033079;28;20537;-75
2021/04/12 06:53:42;;;;;;;12.77;8.10;;;;;;;1.03;91.80;96799.75;5010046;28;20495;-75
2021/04/12 06:56:23;;;;;;;12.63;8.55;;;;;;;1.15;92.50;96806.84;5066509;28;20467;-77
2021/04/12 06:59:20;;;;;;;10.70;7.67;;;;;;;0.97;91.47;96807.03;5073244;28;20493;-78
2021/04/12 07:02:01;;;;;;;11.20;7.00;;;;;;;0.96;92.47;96816.56;5055134;28;20467;-76
2021/04/12 07:05:08;;;;;;;10.17;6.90;;;;;;;0.90;91.72;96815.13;5056715;28;20470;-76
2021/04/12 07:07:57;;;;;;;13.77;7.63;;;;;;;0.88;92.13;96823.94;5060174;28;20473;-76
2021/04/12 07:10:51;;;;;;;16.33;8.77;;;;;;;0.88;92.76;96834.28;5062352;28;20518;-77
2021/04/12 07:13:42;;;;;;;13.13;8.20;;;;;;;0.97;92.56;96833.75;5064167;28;20471;-76
2021/04/12 07:16:07;;;;;;;15.27;8.50;;;;;;;0.91;92.82;96841.91;5047611;28;20029;-76
2021/04/12 07:18:52;;;;;;;12.17;7.50;;;;;;;0.88;91.94;96839.47;5050693;28;20462;-75
2021/04/12 07:21:45;;;;;;;12.50;7.90;;;;;;;1.05;91.78;96848.91;5079622;28;20043;-76
2021/04/12 07:24:39;;;;;;;14.00;8.65;;;;;;;1.17;92.36;96854.22;5072939;28;20478;-76
2021/04/12 07:27:28;;;;;;;11.35;7.25;;;;;;;1.09;92.34;96863.34;5060961;28;20047;-76
2021/04/12 07:30:22;;;;;;;13.80;8.00;;;;;;;1.14;92.18;96864.75;5006425;28;20044;-76
2021/04/12 07:33:42;;;;;;;7.90;5.93;;;;;;;1.09;92.45;96864.16;5080779;28;20470;-76
2021/04/12 07:36:38;;;;;;;14.90;8.10;;;;;;;0.94;92.44;96867.63;4977983;28;20488;-76
2021/04/12 07:39:28;;;;;;;12.40;8.40;;;;;;;1.08;92.34;96872.03;5048398;28;20839;-74
2021/04/12 07:42:31;;;;;;;11.17;7.77;;;;;;;1.01;92.18;96881.91;5061548;28;21164;-77
2021/04/12 07:45:35;;;;;;;14.83;9.03;;;;;;;0.90;92.05;96885.06;5067821;28;20458;-77
2021/04/12 07:48:25;;;;;;;10.80;7.50;;;;;;;0.98;91.69;96886.41;5052672;28;20478;-75
2021/04/12 07:51:31;;;;;;;10.40;7.53;;;;;;;1.09;92.46;96895.25;5056942;28;20462;-75
2021/04/12 07:54:42;;;;;;;11.80;7.97;;;;;;;1.12;91.22;96905.44;5046885;28;20478;-74
2021/04/12 07:57:29;;;;;;;10.47;7.07;;;;;;;1.12;91.30;96905.44;5009132;28;20454;-73
2021/04/12 07:59:57;;;;;;;14.17;8.03;;;;;;;1.31;91.66;96914.81;5037781;28;20470;-76
2021/04/12 08:02:48;;;;;;;11.77;7.87;;;;;;;1.40;90.70;96922.88;5080132;28;20454;-74
2021/04/12 08:05:35;;;;;;;10.27;7.60;;;;;;;1.50;90.94;96915.41;5084870;28;20449;-74
2021/04/12 08:08:36;;;;;;;10.30;6.77;;;;;;;1.30;88.79;96913.94;5051653;28;20481;-75
2021/04/12 08:11:42;;;;;;;11.53;7.33;;;;;;;1.64;90.28;96915.50;5068382;28;21105;-75
2021/04/12 08:14:38;;;;;;;11.23;6.73;;;;;;;1.82;90.06;96917.94;5070965;28;20510;-75
2021/04/12 08:17:10;;;;;;;10.53;6.33;;;;;;;1.85;88.33;96915.19;5058192;28;20519;-77
2021/04/12 08:20:26;;;;;;;11.77;8.10;;;;;;;1.80;88.64;96925.78;5077377;28;20988;-75
2021/04/12 08:23:42;;;;;;;13.47;8.97;;;;;;;1.75;87.60;96922.66;5055684;28;20461;-77
2021/04/12 08:26:14;;;;;;;13.03;8.07;;;;;;;1.80;87.90;96927.56;5072673;28;20485;-76
2021/04/12 08:29:17;;;;;;;11.47;6.67;;;;;;;1.69;88.18;96927.34;5056592;28;20529;-77
2021/04/12 08:32:30;;;;;;;8.63;6.13;;;;;;;2.01;87.51;96931.53;5073837;28;20483;-78
2021/04/12 08:35:17;;;;;;;8.33;5.80;;;;;;;2.06;86.94;96932.06;5049821;28;20474;-75
2021/04/12 08:38:20;;;;;;;10.03;6.27;;;;;;;1.99;86.45;96938.56;5047371;28;20460;-75
2021/04/12 08:41:27;;;;;;;9.03;6.90;;;;;;;1.99;86.14;96948.09;5060564;28;20459;-75
2021/04/12 08:44:11;;;;;;;8.27;6.03;;;;;;;2.05;85.27;96948.56;5051988;28;20471;-75
2021/04/12 08:47:01;;;;;;;11.97;7.00;;;;;;;2.22;86.76;96944.16;5037617;28;20443;-75
2021/04/12 08:49:54;;;;;;;10.57;6.63;;;;;;;2.25;86.13;96954.38;5065391;28;20845;-75
2021/04/12 08:52:44;;;;;;;9.68;6.53;;;;;;;2.52;86.81;96955.31;5046371;28;20462;-75
2021/04/12 08:55:40;;;;;;;10.33;6.70;;;;;;;2.59;87.17;96959.22;5048955;28;20040;-75
2021/04/12 08:58:30;;;;;;;9.93;7.00;;;;;;;2.68;84.80;96967.34;5075492;28;20473;-75
2021/04/12 09:01:31;;;;;;;10.37;6.00;;;;;;;2.75;85.07;96968.66;5068485;28;20450;-75
2021/04/12 09:04:16;;;;;;;9.43;6.63;;;;;;;2.67;84.28;96961.34;5000569;28;20483;-75
2021/04/12 09:07:09;;;;;;;15.03;8.87;;;;;;;2.75;83.26;96966.91;5058574;28;20469;-75
2021/04/12 09:10:07;;;;;;;11.80;7.30;;;;;;;2.70;82.55;96960.31;5085974;28;20504;-75
2021/04/12 09:12:40;;;;;;;13.20;8.77;;;;;;;2.91;84.75;96964.19;5071745;28;20047;-75
2021/04/12 09:15:06;;;;;;;;;;;;;;;3.05;84.61;96961.59;5076925;28;20528;-75
2021/04/12 09:17:41;;;;;;;9.90;7.30;;;;;;;3.01;83.11;96962.69;5056553;28;19908;-75
2021/04/12 09:20:42;;;;;;;9.50;7.57;;;;;;;3.65;83.51;96960.41;5057357;28;20111;-75
2021/04/12 09:23:45;;;;;;;13.00;7.57;;;;;;;3.35;82.88;96968.38;4986682;28;20465;-75
2021/04/12 09:26:23;;;;;;;12.23;7.97;;;;;;;3.40;81.98;96961.16;5067483;28;20459;-75
2021/04/12 09:28:58;;;;;;;10.00;7.40;;;;;;;3.35;83.01;96964.97;5069661;28;20474;-77
2021/04/12 09:31:55;;;;;;;9.90;7.10;;;;;;;3.26;81.86;96971.59;5055742;28;20459;-75
2021/04/12 09:34:26;;;;;;;11.03;8.00;;;;;;;3.06;83.05;96976.25;5055373;28;20466;-77
2021/04/12 09:37:04;;;;;;;9.73;6.43;;;;;;;2.74;84.67;96978.22;5062656;28;20464;-76
2021/04/12 09:39:57;;;;;;;11.80;8.00;;;;;;;2.84;84.24;96984.50;5072152;28;20463;-78
2021/04/12 09:42:41;;;;;;;11.50;7.63;;;;;;;2.91;84.53;96986.75;5059857;28;20471;-77
2021/04/12 09:45:45;;;;;;;10.07;6.87;;;;;;;3.01;84.11;96991.28;5062891;28;20524;-77
2021/04/12 09:48:22;;;;;;;10.10;6.57;;;;;;;3.26;84.45;96990.63;5069896;28;20479;-77
2021/04/12 09:51:26;;;;;;;10.63;6.97;;;;;;;3.04;81.93;96985.91;5068199;28;20474;-79
2021/04/12 09:54:29;;;;;;;15.33;7.07;;;;;;;3.26;83.91;96989.78;5043454;28;20532;-76
2021/04/12 09:57:25;;;;;;;9.83;6.67;;;;;;;3.28;83.84;96998.31;5064124;28;20470;-77
2021/04/12 09:59:57;;;;;;;13.90;6.40;;;;;;;3.29;83.20;96995.63;5044533;28;20470;-78
2021/04/12 10:03:00;;;;;;;12.60;6.67;;;;;;;3.15;83.65;96997.41;5049965;28;20559;-78
2021/04/12 10:05:41;;;;;;;10.75;6.95;;;;;;;3.46;84.78;97001.53;5063496;28;20502;-78
2021/04/12 10:08:35;;;;;;;10.07;6.53;;;;;;;3.46;82.65;97007.56;5052651;28;20109;-76
2021/04/12 10:11:11;;;;;;;11.02;6.72;;;;;;;3.33;81.77;97011.03;5046023;28;20527;-77
2021/04/12 10:13:46;;;;;;;21.83;11.43;;;;;;;3.30;79.96;97015.47;5079023;28;20031;-78
2021/04/12 10:16:23;;;;;;;13.37;8.57;;;;;;;3.52;81.80;97011.53;5056955;28;20475;-78
2021/04/12 10:19:17;;;;;;;11.13;7.33;;;;;;;3.93;81.10;97003.72;5065314;28;20667;-79
2021/04/12 10:22:09;;;;;;;9.85;6.75;;;;;;;3.89;81.58;97012.66;5068547;28;20557;-77
2021/04/12 10:24:56;;;;;;;8.00;5.03;;;;;;;3.72;79.27;97012.88;5065501;28;20055;-76
2021/04/12 10:27:24;;;;;;;9.77;5.90;;;;;;;3.95;79.38;97012.22;5050501;28;20484;-77
2021/04/12 10:30:10;;;;;;;7.30;5.03;;;;;;;3.92;80.02;97014.19;5081033;28;20458;-76
2021/04/12 10:32:47;;;;;;;7.87;5.27;;;;;;;3.70;80.12;97012.97;5054468;28;20462;-77
2021/04/12 10:35:32;;;;;;;7.40;4.70;;;;;;;3.61;80.06;97016.16;5072471;28;20535;-77
2021/04/12 10:38:35;;;;;;;8.20;5.00;;;;;;;3.30;79.65;97025.88;5070911;28;20488;-78
2021/04/12 10:41:26;;;;;;;11.20;5.83;;;;;;;3.57;79.87;97021.66;4982364;28;20461;-75
2021/04/12 10:44:14;;;;;;;7.17;4.47;;;;;;;3.70;78.81;97025.16;5046208;28;20501;-77
2021/04/12 10:46:48;;;;;;;6.80;4.40;;;;;;;3.75;77.56;97029.13;5057084;28;20450;-76
2021/04/12 10:49:27;;;;;;;7.77;4.60;;;;;;;3.69;78.76;97023.47;5071095;28;20474;-77
2021/04/12 10:52:19;;;;;;;8.17;4.60;;;;;;;3.76;78.74;97033.41;5053869;28;21025;-74
2021/04/12 10:54:53;;;;;;;14.60;5.93;;;;;;;3.67;77.75;97030.56;5073635;28;20487;-74
2021/04/12 10:57:31;;;;;;;9.33;4.47;;;;;;;3.65;77.71;97037.59;5059306;28;20506;-74
2021/04/12 11:00:03;;;;;;;8.97;4.40;;;;;;;3.63;77.90;97035.13;5065356;28;20552;-74
2021/04/12 11:03:07;;;;;;;7.37;5.07;;;;;;;3.77;77.32;97034.25;5054332;28;20471;-77
2021/04/12 11:05:34;;;;;;;9.48;6.00;;;;;;;3.93;76.25;97037.53;5070716;28;20477;-78
2021/04/12 11:08:38;;;;;;;9.10;5.27;;;;;;;4.00;74.88;97035.38;5059750;28;20049;-77
2021/04/12 11:11:10;;;;;;;8.17;4.20;;;;;;;4.21;74.16;97035.75;5079586;28;20470;-77
2021/04/12 11:13:56;;;;;;;7.93;4.67;;;;;;;4.33;74.13;97034.13;5068140;28;20467;-77
2021/04/12 11:16:45;;;;;;;6.80;4.07;;;;;;;4.43;74.05;97037.78;5063998;28;20801;-77
2021/04/12 11:19:17;;;;;;;10.77;4.43;;;;;;;4.45;74.55;97041.94;5070862;28;20486;-76
2021/04/12 11:22:16;;;;;;;7.13;3.80;;;;;;;4.52;70.63;97031.94;5090981;28;20507;-77
2021/04/12 11:25:16;;;;;;;13.20;8.43;;;;;;;4.40;74.47;97030.16;5089699;28;21254;-77
2021/04/12 11:28:00;;;;;;;10.70;5.17;;;;;;;4.77;73.13;97032.91;5075133;28;20483;-74
2021/04/12 11:30:29;;;;;;;8.43;4.87;;;;;;;4.51;71.85;97038.09;5072989;28;20497;-74
2021/04/12 11:32:58;;;;;;;8.53;4.87;;;;;;;4.61;71.60;97040.91;5075383;28;20498;-76
2021/04/12 11:35:40;;;;;;;11.20;4.93;;;;;;;4.37;72.65;97036.41;5052753;28;20481;-75
2021/04/12 11:38:16;;;;;;;10.17;4.57;;;;;;;4.49;72.42;97046.03;5074277;28;20515;-74
2021/04/12 11:40:59;;;;;;;7.57;4.73;;;;;;;4.71;72.12;97049.78;5076112;28;20527;-77
2021/04/12 11:43:36;;;;;;;8.77;4.60;;;;;;;4.73;72.32;97040.94;5078860;28;20512;-77
2021/04/12 11:46:17;;;;;;;7.47;3.90;;;;;;;4.67;71.96;97040.53;5070373;28;20450;-77
2021/04/12 11:48:54;;;;;;;9.07;3.83;;;;;;;4.71;70.20;97047.19;5052194;28;20035;-78
2021/04/12 11:51:34;;;;;;;7.30;3.90;;;;;;;4.40;69.90;97051.00;5064295;28;20458;-77
2021/04/12 11:54:04;;;;;;;7.23;3.53;;;;;;;4.17;70.79;97045.53;5065390;28;20039;-76
2021/04/12 11:56:52;;;;;;;9.70;4.20;;;;;;;4.16;71.29;97054.28;5077312;28;20098;-77
2021/04/12 11:59:56;;;;;;;7.73;3.10;;;;;;;4.00;71.45;97069.22;5074261;28;20036;-76
2021/04/12 12:02:25;;;;;;;7.10;4.28;;;;;;;3.72;71.93;97064.91;5047131;28;21135;-76
2021/04/12 12:05:12;;;;;;;8.87;4.67;;;;;;;3.90;71.32;97068.94;5063421;28;20028;-76
2021/04/12 12:08:13;;;;;;;7.10;3.83;;;;;;;3.98;71.03;97068.47;5076670;28;20503;-76
2021/04/12 12:11:16;;;;;;;6.43;3.13;;;;;;;4.24;70.90;97078.03;5045517;28;20462;-74
2021/04/12 12:13:54;;;;;;;9.60;4.53;;;;;;;3.97;69.87;97080.63;5052905;28;20451;-76
2021/04/12 12:16:20;;;;;;;15.77;7.80;;;;;;;4.29;71.15;97082.94;5070962;28;20525;-78
2021/04/12 12:18:54;;;;;;;8.40;4.67;;;;;;;4.19;70.85;97090.53;5055304;28;20504;-74
2021/04/12 12:21:40;;;;;;;7.57;4.27;;;;;;;4.71;68.88;97086.28;5063746;28;20036;-75
2021/04/12 12:24:15;;;;;;;10.07;5.20;;;;;;;4.79;67.21;97083.97;5034273;28;20532;-76
2021/04/12 12:26:50;;;;;;;11.37;5.80;;;;;;;4.71;65.54;97081.06;5059434;28;20051;-77
2021/04/12 12:29:30;;;;;;;8.50;4.40;;;;;;;4.56;66.67;97088.13;5065704;28;21006;-76
2021/04/12 12:32:05;;;;;;;8.43;4.10;;;;;;;4.71;67.36;97084.50;5084216;28;20519;-77
2021/04/12 12:35:01;;;;;;;7.67;4.43;;;;;;;4.59;67.40;97092.28;5068239;28;20462;-75
2021/04/12 12:37:52;;;;;;;13.50;8.37;;;;;;;4.61;68.61;97086.03;5072815;28;20052;-75
2021/04/12 12:40:51;;;;;;;10.63;5.53;;;;;;;4.37;68.23;97091.09;5071565;28;20571;-78
2021/04/12 12:43:24;;;;;;;7.27;4.17;;;;;;;4.31;68.91;97093.25;5047033;28;20045;-78
2021/04/12 12:45:52;;;;;;;8.53;4.17;;;;;;;4.46;68.25;97095.72;5070097;28;20477;-77
2021/04/12 12:48:28;;;;;;;6.27;3.90;;;;;;;4.27;70.02;97105.66;5064724;28;20084;-77
2021/04/12 12:51:14;;;;;;;6.77;4.30;;;;;;;4.26;69.05;97101.38;5072235;28;20047;-79
2021/04/12 12:53:44;;;;;;;6.63;3.53;;;;;;;4.05;70.58;97110.53;5077256;28;20613;-78
2021/04/12 12:56:15;;;;;;;7.43;3.90;;;;;;;4.09;70.35;97112.88;5062462;28;20081;-80
2021/04/12 12:58:57;;;;;;;8.77;3.70;;;;;;;4.03;70.91;97108.06;5081161;28;20036;-77
2021/04/12 13:01:34;;;;;;;8.00;3.70;;;;;;;4.03;70.26;97109.81;5050680;28;20467;-77
2021/04/12 13:04:16;;;;;;;10.70;5.20;;;;;;;4.14;71.19;97113.41;5067297;28;20631;-78
2021/04/12 13:06:44;;;;;;;8.33;4.47;;;;;;;3.94;71.02;97114.66;5057759;28;20466;-77
2021/04/12 13:09:31;;;;;;;9.53;4.33;;;;;;;3.93;72.69;97117.38;5055155;28;20401;-78
2021/04/12 13:12:16;;;;;;;10.03;4.70;;;;;;;4.15;70.08;97109.03;5058016;28;20513;-78